createdAt,value
2023-04-18T00:00:10.677Z,65.01
2023-04-18T00:02:44.039Z,65.11
2023-04-18T00:05:13.381Z,64.89
2023-04-18T00:07:41.630Z,64.81
2023-04-18T00:10:11.858Z,64.71
2023-04-18T00:12:40.445Z,64.19
2023-04-18T00:15:09.906Z,63.71
2023-04-18T00:17:39.747Z,64.47
2023-04-18T00:20:10.702Z,64.71
2023-04-18T00:22:42.521Z,64.85
2023-04-18T00:25:12.658Z,65.50
2023-04-18T00:27:40.889Z,65.21
2023-04-18T00:30:10.826Z,65.61
2023-04-18T00:32:39.817Z,65.98
2023-04-18T00:35:08.856Z,65.76
2023-04-18T00:37:37.586Z,65.79
2023-04-18T00:40:07.057Z,66.18
2023-04-18T00:42:36.711Z,66.63
2023-04-18T00:45:05.566Z,66.41
2023-04-18T00:47:36.203Z,66.46
2023-04-18T00:50:04.856Z,66.77
2023-04-18T00:52:34.837Z,66.28
2023-04-18T00:55:03.920Z,66.31
2023-04-18T00:57:32.837Z,66.07
2023-04-18T01:00:04.485Z,66.77
2023-04-18T01:02:35.834Z,67.53
2023-04-18T01:05:06.164Z,68.67
2023-04-18T01:07:35.931Z,69.22
2023-04-18T01:10:04.924Z,68.92
2023-04-18T01:12:33.532Z,68.44
2023-04-18T01:15:04.151Z,68.88
2023-04-18T01:17:35.616Z,68.31
2023-04-18T01:20:06.262Z,69.46
2023-04-18T01:22:35.110Z,69.17
2023-04-18T01:25:10.146Z,69.20
2023-04-18T01:27:38.418Z,69.30
2023-04-18T01:30:08.153Z,69.26
2023-04-18T01:32:36.573Z,68.24
2023-04-18T01:35:05.378Z,68.06
2023-04-18T01:37:36.211Z,67.76
2023-04-18T01:40:04.899Z,67.54
2023-04-18T01:42:34.605Z,67.52
2023-04-18T01:45:03.001Z,67.80
2023-04-18T01:47:31.986Z,67.41
2023-04-18T01:50:00.263Z,67.40
2023-04-18T01:52:31.550Z,66.92
2023-04-18T01:55:02.160Z,67.76
2023-04-18T01:57:32.178Z,68.05
2023-04-18T02:00:01.898Z,68.46
2023-04-18T02:02:32.754Z,68.92
2023-04-18T02:05:01.039Z,69.28
2023-04-18T02:07:29.625Z,70.07
2023-04-18T02:09:58.448Z,70.96
2023-04-18T02:12:26.885Z,70.99
2023-04-18T02:14:55.661Z,71.75
2023-04-18T02:17:25.540Z,71.92
2023-04-18T02:19:56.540Z,71.72
2023-04-18T02:22:24.946Z,71.96
2023-04-18T02:24:53.197Z,71.66
2023-04-18T02:27:21.455Z,71.45
2023-04-18T02:29:49.603Z,72.08
2023-04-18T02:32:18.007Z,71.92
2023-04-18T02:34:47.746Z,72.40
2023-04-18T02:37:18.674Z,72.46
2023-04-18T02:39:46.923Z,71.98
2023-04-18T02:42:15.729Z,71.43
2023-04-18T02:44:44.109Z,71.51
2023-04-18T02:47:12.363Z,72.37
2023-04-18T02:49:43.393Z,71.93
2023-04-18T02:52:13.051Z,71.81
2023-04-18T02:54:41.332Z,71.43
2023-04-18T02:57:14.695Z,72.13
2023-04-18T02:59:55.280Z,71.71
2023-04-18T03:02:42.152Z,71.18
2023-04-18T03:05:30.792Z,72.14
2023-04-18T03:08:03.569Z,72.29
2023-04-18T03:10:32.366Z,72.31
2023-04-18T03:13:01.165Z,72.51
2023-04-18T03:15:31.162Z,72.01
2023-04-18T03:18:00.323Z,71.35
2023-04-18T03:20:33.029Z,71.72
2023-04-18T03:23:01.368Z,71.61
2023-04-18T03:25:34.333Z,71.24
2023-04-18T03:28:03.387Z,71.43
2023-04-18T03:30:33.225Z,71.04
2023-04-18T03:33:05.306Z,71.30
2023-04-18T03:35:34.180Z,70.94
2023-04-18T03:38:02.759Z,70.91
2023-04-18T03:40:36.424Z,70.11
2023-04-18T03:43:11.062Z,70.98
2023-04-18T03:45:39.534Z,70.29
2023-04-18T03:48:08.329Z,70.20
2023-04-18T03:50:41.359Z,70.71
2023-04-18T03:53:11.746Z,69.81
2023-04-18T03:55:43.425Z,70.96
2023-04-18T03:58:14.248Z,70.36
2023-04-18T04:00:43.150Z,70.46
2023-04-18T04:03:13.262Z,70.66
2023-04-18T04:05:41.734Z,70.35
2023-04-18T04:08:10.037Z,69.59
2023-04-18T04:10:38.490Z,68.66
2023-04-18T04:13:08.088Z,68.09
2023-04-18T04:15:39.790Z,67.61
2023-04-18T04:18:11.018Z,67.26
2023-04-18T04:20:43.283Z,66.81
2023-04-18T04:23:15.642Z,66.71
2023-04-18T04:25:46.980Z,66.49
2023-04-18T04:28:28.800Z,65.57
2023-04-18T04:31:02.260Z,65.39
2023-04-18T04:33:33.332Z,64.67
2023-04-18T04:36:05.897Z,64.18
2023-04-18T04:38:38.185Z,64.67
2023-04-18T04:41:07.596Z,64.30
2023-04-18T04:43:37.994Z,64.43
2023-04-18T04:46:07.712Z,63.63
2023-04-18T04:48:36.167Z,63.70
2023-04-18T04:51:05.610Z,63.46
2023-04-18T04:53:34.086Z,63.11
2023-04-18T04:56:04.814Z,62.79
2023-04-18T04:58:35.192Z,61.96
2023-04-18T05:01:25.750Z,61.70
2023-04-18T05:03:55.913Z,61.37
2023-04-18T05:06:25.139Z,60.50
2023-04-18T05:08:53.623Z,59.92
2023-04-18T05:11:22.002Z,58.58
2023-04-18T05:13:50.313Z,57.88
2023-04-18T05:16:18.793Z,57.59
2023-04-18T05:18:48.447Z,56.70
2023-04-18T05:21:16.697Z,56.39
2023-04-18T05:23:44.965Z,56.37
2023-04-18T05:26:13.462Z,56.03
2023-04-18T05:28:41.653Z,55.90
2023-04-18T05:31:10.011Z,55.20
2023-04-18T05:33:38.308Z,55.23
2023-04-18T05:36:08.961Z,54.95
2023-04-18T05:38:37.313Z,54.60
2023-04-18T05:41:05.721Z,54.90
2023-04-18T05:43:34.639Z,54.15
2023-04-18T05:46:02.995Z,54.37
2023-04-18T05:48:31.351Z,54.39
2023-04-18T05:50:59.769Z,54.06
2023-04-18T05:53:29.450Z,53.50
2023-04-18T05:55:59.184Z,52.98
2023-04-18T05:58:28.798Z,53.27
2023-04-18T06:00:57.311Z,52.64
2023-04-18T06:03:26.004Z,52.83
2023-04-18T06:05:54.740Z,52.38
2023-04-18T06:08:23.119Z,51.73
2023-04-18T06:10:53.183Z,52.17
2023-04-18T06:13:21.578Z,51.04
2023-04-18T06:15:49.897Z,51.04
2023-04-18T06:18:18.183Z,50.41
2023-04-18T06:21:05.398Z,50.25
2023-04-18T06:23:52.316Z,50.46
2023-04-18T06:26:40.893Z,50.37
2023-04-18T06:29:09.299Z,49.71
2023-04-18T06:31:37.547Z,49.77
2023-04-18T06:34:07.429Z,49.78
2023-04-18T06:36:35.722Z,49.15
2023-04-18T06:39:04.049Z,48.07
2023-04-18T06:41:32.735Z,45.75
2023-04-18T06:44:04.624Z,45.86
2023-04-18T06:46:33.755Z,45.10
2023-04-18T06:49:02.339Z,44.07
2023-04-18T06:51:31.664Z,44.44
2023-04-18T06:53:59.938Z,43.93
2023-04-18T06:56:29.654Z,44.18
2023-04-18T06:58:57.814Z,43.50
2023-04-18T07:01:27.594Z,43.84
2023-04-18T07:03:55.919Z,43.89
2023-04-18T07:06:24.233Z,43.08
2023-04-18T07:08:54.414Z,43.50
2023-04-18T07:11:23.657Z,42.69
2023-04-18T07:13:51.934Z,41.76
2023-04-18T07:16:20.386Z,41.65
2023-04-18T07:18:49.997Z,41.46
2023-04-18T07:21:18.228Z,41.50
2023-04-18T07:23:46.475Z,40.99
2023-04-18T07:26:14.815Z,40.85
2023-04-18T07:28:43.135Z,41.05
2023-04-18T07:31:11.829Z,40.37
2023-04-18T07:33:40.256Z,40.77
2023-04-18T07:36:10.430Z,40.40
2023-04-18T07:38:38.595Z,41.38
2023-04-18T07:41:06.931Z,41.64
2023-04-18T07:43:35.192Z,42.45
2023-04-18T07:46:03.529Z,42.99
2023-04-18T07:48:31.787Z,43.34
2023-04-18T07:51:00.080Z,43.63
2023-04-18T07:53:29.668Z,43.15
2023-04-18T07:55:57.888Z,42.88
2023-04-18T07:58:26.110Z,43.23
2023-04-18T08:00:54.336Z,43.35
2023-04-18T08:03:22.747Z,42.71
2023-04-18T08:05:51.974Z,42.68
2023-04-18T08:08:20.861Z,42.56
2023-04-18T08:10:50.947Z,41.96
2023-04-18T08:13:19.182Z,43.19
2023-04-18T08:15:47.751Z,42.54
2023-04-18T08:18:16.027Z,41.96
2023-04-18T08:20:44.247Z,41.77
2023-04-18T08:23:13.347Z,41.86
2023-04-18T08:25:41.856Z,40.94
2023-04-18T08:28:11.797Z,41.07
2023-04-18T08:30:40.100Z,40.81
2023-04-18T08:33:08.387Z,39.42
2023-04-18T08:35:37.619Z,39.83
2023-04-18T08:38:05.833Z,38.82
2023-04-18T08:40:34.432Z,39.06
2023-04-18T08:43:04.927Z,38.46
2023-04-18T08:45:34.785Z,38.16
2023-04-18T08:48:04.011Z,38.01
2023-04-18T08:50:32.632Z,38.16
2023-04-18T08:53:02.001Z,38.04
2023-04-18T08:55:30.462Z,36.48
2023-04-18T08:57:59.701Z,36.12
2023-04-18T09:00:29.354Z,36.33
2023-04-18T09:02:59.261Z,35.64
2023-04-18T09:05:28.345Z,35.85
2023-04-18T09:07:57.511Z,35.82
2023-04-18T09:10:28.920Z,34.86
2023-04-18T09:12:58.560Z,34.62
2023-04-18T09:15:29.334Z,34.56
2023-04-18T09:18:02.705Z,34.96
2023-04-18T09:20:38.088Z,34.75
2023-04-18T09:23:11.026Z,33.92
2023-04-18T09:25:46.624Z,32.63
2023-04-18T09:28:27.082Z,32.78
2023-04-18T09:30:57.091Z,32.63
2023-04-18T09:33:32.622Z,32.14
2023-04-18T09:36:19.408Z,31.76
2023-04-18T09:38:48.300Z,31.44
2023-04-18T09:41:19.844Z,31.43
2023-04-18T09:43:50.709Z,31.55
2023-04-18T09:46:19.045Z,31.00
2023-04-18T09:48:49.202Z,31.35
2023-04-18T09:51:18.116Z,31.43
2023-04-18T09:53:47.785Z,30.89
2023-04-18T09:56:21.426Z,30.09
2023-04-18T09:58:57.048Z,29.95
2023-04-18T10:01:28.974Z,29.55
2023-04-18T10:04:03.433Z,29.41
2023-04-18T10:06:34.584Z,30.49
2023-04-18T10:09:05.845Z,31.02
2023-04-18T10:11:34.454Z,30.96
2023-04-18T10:14:05.751Z,30.96
2023-04-18T10:16:36.114Z,31.93
2023-04-18T10:19:27.194Z,32.85
2023-04-18T10:21:56.778Z,33.34
2023-04-18T10:24:50.409Z,33.38
2023-04-18T10:27:19.734Z,33.84
2023-04-18T10:29:50.068Z,34.13
2023-04-18T10:32:20.724Z,34.00
2023-04-18T10:34:53.449Z,33.46
2023-04-18T10:37:21.798Z,33.74
2023-04-18T10:39:57.012Z,33.35
2023-04-18T10:42:58.878Z,32.57
2023-04-18T10:45:28.622Z,31.67
2023-04-18T10:48:25.940Z,31.60
2023-04-18T10:51:16.288Z,31.73
2023-04-18T10:53:55.227Z,30.32
2023-04-18T10:56:23.742Z,31.04
2023-04-18T10:58:53.342Z,30.71
2023-04-18T11:01:31.684Z,30.06
2023-04-18T11:04:01.692Z,30.50
2023-04-18T11:06:31.784Z,30.52
2023-04-18T11:09:12.626Z,30.39
2023-04-18T11:11:41.678Z,30.74
2023-04-18T11:14:10.219Z,29.54
2023-04-18T11:16:38.925Z,30.21
2023-04-18T11:19:21.168Z,30.35
2023-04-18T11:21:51.848Z,29.26
2023-04-18T11:24:24.482Z,30.05
2023-04-18T11:26:55.936Z,29.50
2023-04-18T11:29:25.133Z,29.21
2023-04-18T11:31:56.687Z,29.25
2023-04-18T11:34:30.593Z,28.96
2023-04-18T11:37:00.906Z,28.02
2023-04-18T11:39:29.403Z,26.92
2023-04-18T11:41:58.292Z,26.68
2023-04-18T11:44:27.710Z,27.54
2023-04-18T11:46:55.939Z,26.56
2023-04-18T11:49:29.205Z,26.78
2023-04-18T11:51:57.741Z,24.94
2023-04-18T11:54:44.906Z,25.16
2023-04-18T11:57:25.443Z,26.41
2023-04-18T11:59:55.229Z,25.21
2023-04-18T12:02:25.363Z,25.79
2023-04-18T12:04:56.084Z,24.01
2023-04-18T12:07:32.398Z,23.56
2023-04-18T12:10:02.481Z,23.90
2023-04-18T12:12:32.381Z,23.96
2023-04-18T12:15:02.113Z,23.65
2023-04-18T12:17:34.434Z,23.48
2023-04-18T12:20:04.180Z,22.87
2023-04-18T12:22:46.540Z,22.01
2023-04-18T12:25:23.507Z,22.48
2023-04-18T12:27:56.367Z,22.26
2023-04-18T12:30:26.204Z,22.56
2023-04-18T12:32:57.221Z,23.13
2023-04-18T12:35:26.538Z,22.83
2023-04-18T12:37:56.551Z,21.60
2023-04-18T12:40:27.461Z,21.74
2023-04-18T12:42:56.292Z,21.32
2023-04-18T12:45:25.769Z,22.88
2023-04-18T12:47:54.429Z,22.79
2023-04-18T12:50:24.658Z,21.60
2023-04-18T12:52:53.924Z,21.14
2023-04-18T12:55:22.773Z,21.95
2023-04-18T12:57:54.850Z,21.15
2023-04-18T13:00:24.469Z,21.41
2023-04-18T13:02:53.424Z,21.93
2023-04-18T13:05:23.316Z,21.72
2023-04-18T13:07:58.570Z,21.25
2023-04-18T13:10:33.447Z,21.34
2023-04-18T13:13:03.088Z,21.77
2023-04-18T13:15:31.504Z,21.59
2023-04-18T13:18:04.530Z,21.26
2023-04-18T13:20:34.079Z,21.47
2023-04-18T13:23:03.352Z,21.05
2023-04-18T13:25:31.919Z,20.96
2023-04-18T13:28:00.951Z,20.83
2023-04-18T13:30:32.083Z,21.56
2023-04-18T13:33:00.518Z,21.97
2023-04-18T13:35:28.802Z,21.57
2023-04-18T13:37:57.185Z,21.91
2023-04-18T13:40:25.435Z,21.56
2023-04-18T13:42:53.708Z,20.86
2023-04-18T13:45:22.008Z,21.47
2023-04-18T13:47:51.836Z,21.86
2023-04-18T13:50:20.329Z,22.17
2023-04-18T13:52:49.390Z,21.42
2023-04-18T13:55:18.723Z,21.23
2023-04-18T13:57:48.383Z,21.55
2023-04-18T14:00:17.569Z,21.34
2023-04-18T14:02:45.901Z,21.43
2023-04-18T14:05:16.057Z,21.99
2023-04-18T14:07:44.322Z,21.84
2023-04-18T14:10:12.849Z,22.00
2023-04-18T14:12:41.203Z,22.44
2023-04-18T14:15:10.902Z,22.25
2023-04-18T14:17:39.442Z,22.06
2023-04-18T14:20:09.340Z,22.13
2023-04-18T14:22:39.033Z,21.50
2023-04-18T14:25:08.760Z,21.83
2023-04-18T14:27:37.581Z,22.07
2023-04-18T14:30:08.714Z,22.00
2023-04-18T14:32:37.284Z,21.69
2023-04-18T14:35:07.100Z,21.68
2023-04-18T14:37:35.491Z,21.97
2023-04-18T14:40:08.360Z,22.03
2023-04-18T14:42:39.410Z,21.56
2023-04-18T14:45:11.615Z,22.06
2023-04-18T14:47:40.243Z,22.23
2023-04-18T14:50:11.805Z,21.79
2023-04-18T14:52:41.545Z,22.23
2023-04-18T14:55:11.612Z,22.60
2023-04-18T14:57:40.505Z,22.06
2023-04-18T15:00:10.422Z,22.79
2023-04-18T15:02:38.842Z,22.56
2023-04-18T15:05:08.513Z,22.29
2023-04-18T15:07:38.019Z,21.95
2023-04-18T15:10:07.525Z,21.89
2023-04-18T15:12:37.285Z,22.66
2023-04-18T15:15:06.360Z,22.77
2023-04-18T15:17:34.715Z,22.83
2023-04-18T15:20:05.635Z,22.18
2023-04-18T15:22:34.009Z,22.18
2023-04-18T15:25:02.415Z,22.79
2023-04-18T15:27:32.153Z,22.79
2023-04-18T15:30:02.419Z,23.19
2023-04-18T15:32:34.263Z,23.34
2023-04-18T15:35:03.054Z,23.66
2023-04-18T15:37:32.924Z,22.86
2023-04-18T15:40:02.120Z,23.26
2023-04-18T15:42:31.893Z,23.46
2023-04-18T15:45:01.720Z,23.96
2023-04-18T15:47:33.874Z,23.90
2023-04-18T15:50:03.389Z,24.08
2023-04-18T15:52:33.726Z,24.14
2023-04-18T15:55:02.125Z,24.54
2023-04-18T15:57:32.992Z,24.95
2023-04-18T16:00:02.813Z,24.62
2023-04-18T16:02:33.676Z,25.07
2023-04-18T16:05:01.929Z,24.91
2023-04-18T16:07:31.847Z,24.82
2023-04-18T16:10:02.639Z,24.32
2023-04-18T16:12:32.704Z,23.95
2023-04-18T16:15:02.322Z,23.88
2023-04-18T16:17:33.807Z,24.09
2023-04-18T16:20:02.476Z,24.17
2023-04-18T16:22:31.792Z,23.47
2023-04-18T16:25:00.221Z,24.16
2023-04-18T16:27:29.054Z,23.60
2023-04-18T16:29:57.406Z,23.91
2023-04-18T16:32:27.088Z,24.20
2023-04-18T16:34:55.409Z,23.82
2023-04-18T16:37:23.701Z,23.79
2023-04-18T16:39:52.020Z,24.15
2023-04-18T16:42:20.284Z,23.66
2023-04-18T16:44:48.548Z,24.57
2023-04-18T16:47:16.797Z,23.50
2023-04-18T16:49:47.801Z,24.01
2023-04-18T16:52:16.982Z,24.08
2023-04-18T16:54:45.563Z,23.86
2023-04-18T16:57:13.999Z,23.77
2023-04-18T16:59:42.757Z,23.98
2023-04-18T17:02:12.068Z,24.15
2023-04-18T17:04:41.114Z,23.28
2023-04-18T17:07:10.997Z,23.65
2023-04-18T17:09:39.474Z,23.30
2023-04-18T17:12:08.150Z,23.93
2023-04-18T17:14:37.550Z,23.32
2023-04-18T17:17:05.943Z,23.34
2023-04-18T17:19:34.211Z,23.62
2023-04-18T17:22:03.618Z,23.37
2023-04-18T17:24:33.491Z,24.00
2023-04-18T17:27:01.814Z,23.70
2023-04-18T17:29:30.384Z,24.01
2023-04-18T17:31:58.776Z,24.23
2023-04-18T17:34:27.066Z,23.24
2023-04-18T17:36:55.609Z,24.05
2023-04-18T17:39:27.109Z,25.06
2023-04-18T17:41:57.630Z,25.06
2023-04-18T17:44:26.186Z,25.26
2023-04-18T17:46:54.650Z,25.25
2023-04-18T17:49:23.136Z,25.36
2023-04-18T17:51:52.067Z,25.85
2023-04-18T17:54:20.691Z,26.10
2023-04-18T17:56:50.487Z,25.99
2023-04-18T17:59:20.438Z,25.75
2023-04-18T18:01:49.134Z,25.87
2023-04-18T18:04:18.074Z,25.75
2023-04-18T18:06:55.881Z,25.17
2023-04-18T18:09:24.901Z,25.66
2023-04-18T18:11:55.943Z,25.00
2023-04-18T18:14:26.587Z,25.78
2023-04-18T18:16:55.218Z,25.37
2023-04-18T18:19:26.383Z,25.29
2023-04-18T18:21:56.310Z,25.86
2023-04-18T18:24:27.085Z,25.92
2023-04-18T18:26:56.508Z,25.58
2023-04-18T18:29:26.747Z,26.30
2023-04-18T18:31:55.474Z,25.84
2023-04-18T18:34:24.054Z,25.92
2023-04-18T18:36:52.762Z,25.73
2023-04-18T18:39:21.367Z,26.53
2023-04-18T18:41:50.146Z,26.38
2023-04-18T18:44:18.415Z,26.38
2023-04-18T18:46:48.409Z,27.19
2023-04-18T18:49:17.008Z,27.25
2023-04-18T18:51:45.432Z,26.66
2023-04-18T18:54:13.775Z,27.17
2023-04-18T18:56:42.908Z,27.34
2023-04-18T18:59:11.629Z,26.98
2023-04-18T19:01:40.126Z,26.97
2023-04-18T19:04:10.894Z,27.40
2023-04-18T19:06:40.243Z,27.47
2023-04-18T19:09:08.614Z,27.87
2023-04-18T19:11:37.036Z,27.91
2023-04-18T19:14:06.139Z,27.49
2023-04-18T19:16:36.078Z,27.88
2023-04-18T19:19:04.863Z,28.25
2023-04-18T19:21:36.590Z,28.21
2023-04-18T19:24:05.675Z,28.17
2023-04-18T19:26:34.319Z,28.45
2023-04-18T19:29:03.035Z,29.00
2023-04-18T19:31:32.291Z,28.34
2023-04-18T19:34:00.844Z,29.47
2023-04-18T19:36:29.582Z,29.17
2023-04-18T19:38:59.648Z,29.33
2023-04-18T19:41:27.957Z,29.73
2023-04-18T19:43:56.781Z,29.40
2023-04-18T19:46:25.460Z,29.25
2023-04-18T19:48:53.853Z,29.58
2023-04-18T19:51:22.162Z,29.93
2023-04-18T19:53:51.144Z,29.92
2023-04-18T19:56:20.917Z,30.03
2023-04-18T19:58:49.335Z,29.87
2023-04-18T20:01:19.807Z,29.97
2023-04-18T20:03:49.361Z,30.27
2023-04-18T20:06:18.966Z,30.30
2023-04-18T20:08:47.324Z,30.79
2023-04-18T20:11:15.929Z,31.46
2023-04-18T20:13:46.069Z,30.66
2023-04-18T20:16:16.606Z,31.68
2023-04-18T20:18:47.555Z,31.88
2023-04-18T20:21:16.475Z,31.79
2023-04-18T20:23:45.337Z,31.63
2023-04-18T20:26:13.754Z,32.45
2023-04-18T20:28:42.003Z,32.11
2023-04-18T20:31:12.696Z,32.55
2023-04-18T20:33:41.259Z,32.19
2023-04-18T20:36:09.792Z,32.79
2023-04-18T20:38:38.144Z,32.11
2023-04-18T20:41:10.747Z,32.36
2023-04-18T20:43:39.116Z,32.86
2023-04-18T20:46:07.619Z,32.54
2023-04-18T20:48:37.660Z,33.36
2023-04-18T20:51:06.241Z,33.65
2023-04-18T20:53:34.533Z,33.55
2023-04-18T20:56:03.521Z,33.46
2023-04-18T20:58:32.318Z,33.93
2023-04-18T21:01:00.879Z,33.85
2023-04-18T21:03:29.329Z,33.94
2023-04-18T21:05:59.329Z,34.58
2023-04-18T21:08:27.612Z,34.68
2023-04-18T21:10:55.876Z,34.72
2023-04-18T21:13:24.573Z,34.58
2023-04-18T21:15:57.087Z,34.39
2023-04-18T21:18:25.906Z,34.47
2023-04-18T21:20:54.501Z,34.76
2023-04-18T21:23:25.295Z,35.37
2023-04-18T21:25:53.648Z,35.54
2023-04-18T21:28:21.952Z,35.60
2023-04-18T21:30:50.862Z,35.43
2023-04-18T21:33:19.322Z,35.55
2023-04-18T21:35:47.663Z,35.60
2023-04-18T21:38:15.944Z,36.16
2023-04-18T21:40:45.581Z,35.96
2023-04-18T21:43:13.835Z,36.06
2023-04-18T21:45:42.155Z,36.56
2023-04-18T21:48:10.613Z,36.15
2023-04-18T21:50:38.900Z,36.34
2023-04-18T21:53:07.189Z,36.68
2023-04-18T21:55:35.639Z,36.79
2023-04-18T21:58:06.643Z,37.03
2023-04-18T22:00:34.872Z,37.27
2023-04-18T22:03:03.170Z,37.42
2023-04-18T22:05:33.344Z,37.09
2023-04-18T22:08:03.022Z,37.76
2023-04-18T22:10:31.213Z,37.56
2023-04-18T22:13:00.231Z,37.77
2023-04-18T22:15:30.137Z,37.99
2023-04-18T22:17:59.085Z,38.08
2023-04-18T22:20:27.444Z,38.12
2023-04-18T22:22:55.836Z,37.95
2023-04-18T22:25:24.068Z,38.09
2023-04-18T22:27:52.488Z,38.29
2023-04-18T22:30:20.756Z,38.66
2023-04-18T22:32:50.550Z,38.46
2023-04-18T22:35:19.026Z,38.40
2023-04-18T22:37:47.318Z,38.42
2023-04-18T22:40:16.546Z,38.60
2023-04-18T22:42:44.956Z,38.23
2023-04-18T22:45:13.731Z,38.53
2023-04-18T22:47:42.157Z,38.84
2023-04-18T22:50:12.561Z,38.80
2023-04-18T22:52:41.280Z,38.92
2023-04-18T22:55:10.394Z,38.95
2023-04-18T22:57:39.509Z,39.23
2023-04-18T23:00:10.321Z,39.20
2023-04-18T23:02:38.955Z,39.09
2023-04-18T23:05:08.050Z,39.16
2023-04-18T23:07:37.873Z,39.15
2023-04-18T23:10:07.690Z,39.44
2023-04-18T23:12:35.872Z,39.11
2023-04-18T23:15:04.232Z,39.25
2023-04-18T23:17:35.882Z,39.25
2023-04-18T23:20:06.860Z,39.32
2023-04-18T23:22:35.166Z,39.66
2023-04-18T23:25:05.162Z,39.67
2023-04-18T23:27:33.416Z,39.69
2023-04-18T23:30:01.724Z,39.80
2023-04-18T23:32:33.336Z,40.11
2023-04-18T23:35:04.254Z,40.09
2023-04-18T23:37:35.457Z,40.32
2023-04-18T23:40:06.921Z,40.47
2023-04-18T23:42:35.936Z,40.36
2023-04-18T23:45:05.901Z,40.59
2023-04-18T23:47:35.964Z,40.48
2023-04-18T23:50:04.366Z,40.84
2023-04-18T23:52:34.329Z,40.71
2023-04-18T23:55:02.865Z,41.08
2023-04-18T23:57:36.048Z,41.11
